sensor_id;sensor_type;location;lat;lon;timestamp;P1;durP1;ratioP1;P2;durP2;ratioP2
42134;SDS011;28312;43.460;11.810;2023-03-01T00:00:00;4.25;;;2.20;;
42134;SDS011;28312;43.460;11.810;2023-03-01T00:04:12;2.60;;;1.90;;
42134;SDS011;28312;43.460;11.810;2023-03-01T00:08:16;3.63;;;2.28;;
42134;SDS011;28312;43.460;11.810;2023-03-01T00:12:19;4.15;;;2.72;;
42134;SDS011;28312;43.460;11.810;2023-03-01T00:16:26;4.35;;;3.15;;
42134;SDS011;28312;43.460;11.810;2023-03-01T00:20:48;3.13;;;1.95;;
42134;SDS011;28312;43.460;11.810;2023-03-01T00:24:55;3.40;;;2.17;;
42134;SDS011;28312;43.460;11.810;2023-03-01T00:28:59;3.28;;;2.22;;
42134;SDS011;28312;43.460;11.810;2023-03-01T00:33:03;3.00;;;2.22;;
42134;SDS011;28312;43.460;11.810;2023-03-01T00:37:07;3.00;;;2.25;;
42134;SDS011;28312;43.460;11.810;2023-03-01T00:41:14;3.47;;;2.22;;
42134;SDS011;28312;43.460;11.810;2023-03-01T00:45:21;3.10;;;2.25;;
42134;SDS011;28312;43.460;11.810;2023-03-01T00:49:24;4.25;;;1.67;;
42134;SDS011;28312;43.460;11.810;2023-03-01T00:53:31;3.40;;;2.33;;
42134;SDS011;28312;43.460;11.810;2023-03-01T00:57:35;2.80;;;2.03;;
42134;SDS011;28312;43.460;11.810;2023-03-01T01:01:38;3.22;;;1.95;;
42134;SDS011;28312;43.460;11.810;2023-03-01T01:05:42;3.13;;;1.73;;
42134;SDS011;28312;43.460;11.810;2023-03-01T01:09:46;2.90;;;1.75;;
42134;SDS011;28312;43.460;11.810;2023-03-01T01:13:50;2.10;;;1.30;;
42134;SDS011;28312;43.460;11.810;2023-03-01T01:17:54;2.22;;;1.45;;
42134;SDS011;28312;43.460;11.810;2023-03-01T01:21:57;2.30;;;1.42;;
42134;SDS011;28312;43.460;11.810;2023-03-01T01:26:05;1.88;;;1.33;;
42134;SDS011;28312;43.460;11.810;2023-03-01T01:30:19;1.67;;;0.90;;
42134;SDS011;28312;43.460;11.810;2023-03-01T01:34:23;1.95;;;1.10;;
42134;SDS011;28312;43.460;11.810;2023-03-01T01:38:27;1.83;;;1.15;;
42134;SDS011;28312;43.460;11.810;2023-03-01T01:42:33;2.53;;;1.55;;
42134;SDS011;28312;43.460;11.810;2023-03-01T01:46:40;2.73;;;1.30;;
42134;SDS011;28312;43.460;11.810;2023-03-01T01:50:50;1.95;;;1.33;;
42134;SDS011;28312;43.460;11.810;2023-03-01T01:55:08;1.73;;;1.10;;
42134;SDS011;28312;43.460;11.810;2023-03-01T01:59:16;1.45;;;0.90;;
42134;SDS011;28312;43.460;11.810;2023-03-01T02:03:24;1.15;;;0.80;;
42134;SDS011;28312;43.460;11.810;2023-03-01T02:07:31;1.10;;;0.70;;
42134;SDS011;28312;43.460;11.810;2023-03-01T02:11:35;1.52;;;0.80;;
42134;SDS011;28312;43.460;11.810;2023-03-01T02:15:40;1.30;;;0.82;;
42134;SDS011;28312;43.460;11.810;2023-03-01T02:24:13;0.53;;;0.50;;
42134;SDS011;28312;43.460;11.810;2023-03-01T02:28:43;1.52;;;0.90;;
42134;SDS011;28312;43.460;11.810;2023-03-01T02:32:47;0.80;;;0.60;;
42134;SDS011;28312;43.460;11.810;2023-03-01T02:36:54;1.40;;;0.95;;
42134;SDS011;28312;43.460;11.810;2023-03-01T02:41:11;1.65;;;1.02;;
42134;SDS011;28312;43.460;11.810;2023-03-01T02:45:18;1.70;;;1.17;;
42134;SDS011;28312;43.460;11.810;2023-03-01T02:49:26;1.52;;;0.93;;
42134;SDS011;28312;43.460;11.810;2023-03-01T02:53:37;1.27;;;0.80;;
42134;SDS011;28312;43.460;11.810;2023-03-01T02:58:02;1.80;;;1.10;;
42134;SDS011;28312;43.460;11.810;2023-03-01T03:02:24;2.05;;;1.10;;
42134;SDS011;28312;43.460;11.810;2023-03-01T03:06:52;1.70;;;1.00;;
42134;SDS011;28312;43.460;11.810;2023-03-01T03:10:56;1.73;;;1.00;;
42134;SDS011;28312;43.460;11.810;2023-03-01T03:14:59;1.52;;;0.93;;
42134;SDS011;28312;43.460;11.810;2023-03-01T03:19:03;1.98;;;1.35;;
42134;SDS011;28312;43.460;11.810;2023-03-01T03:23:07;1.70;;;1.10;;
42134;SDS011;28312;43.460;11.810;2023-03-01T03:27:11;1.23;;;0.82;;
42134;SDS011;28312;43.460;11.810;2023-03-01T03:31:15;1.02;;;0.80;;
42134;SDS011;28312;43.460;11.810;2023-03-01T03:35:20;1.55;;;0.80;;
42134;SDS011;28312;43.460;11.810;2023-03-01T03:39:28;1.27;;;0.88;;
42134;SDS011;28312;43.460;11.810;2023-03-01T03:43:38;0.98;;;0.65;;
42134;SDS011;28312;43.460;11.810;2023-03-01T03:47:43;1.42;;;1.02;;
42134;SDS011;28312;43.460;11.810;2023-03-01T03:51:46;1.25;;;0.82;;
42134;SDS011;28312;43.460;11.810;2023-03-01T03:55:50;1.90;;;1.17;;
42134;SDS011;28312;43.460;11.810;2023-03-01T03:59:54;1.08;;;0.77;;
42134;SDS011;28312;43.460;11.810;2023-03-01T04:03:57;2.00;;;1.20;;
42134;SDS011;28312;43.460;11.810;2023-03-01T04:08:06;2.00;;;1.30;;
42134;SDS011;28312;43.460;11.810;2023-03-01T04:12:10;2.25;;;1.63;;
42134;SDS011;28312;43.460;11.810;2023-03-01T04:16:14;2.33;;;1.35;;
42134;SDS011;28312;43.460;11.810;2023-03-01T04:20:19;1.77;;;1.27;;
42134;SDS011;28312;43.460;11.810;2023-03-01T04:24:28;1.88;;;1.02;;
42134;SDS011;28312;43.460;11.810;2023-03-01T04:28:35;2.70;;;1.52;;
42134;SDS011;28312;43.460;11.810;2023-03-01T04:32:40;1.87;;;1.10;;
42134;SDS011;28312;43.460;11.810;2023-03-01T04:36:44;2.25;;;1.30;;
42134;SDS011;28312;43.460;11.810;2023-03-01T04:40:48;1.23;;;0.90;;
42134;SDS011;28312;43.460;11.810;2023-03-01T04:44:51;1.40;;;1.10;;
42134;SDS011;28312;43.460;11.810;2023-03-01T04:48:56;2.83;;;1.80;;
42134;SDS011;28312;43.460;11.810;2023-03-01T04:53:00;2.00;;;1.42;;
42134;SDS011;28312;43.460;11.810;2023-03-01T04:57:04;2.13;;;1.33;;
42134;SDS011;28312;43.460;11.810;2023-03-01T05:01:08;2.78;;;1.52;;
42134;SDS011;28312;43.460;11.810;2023-03-01T05:05:30;3.03;;;1.40;;
42134;SDS011;28312;43.460;11.810;2023-03-01T05:09:38;2.13;;;1.55;;
42134;SDS011;28312;43.460;11.810;2023-03-01T05:13:42;2.47;;;1.90;;
42134;SDS011;28312;43.460;11.810;2023-03-01T05:17:45;1.88;;;1.00;;
42134;SDS011;28312;43.460;11.810;2023-03-01T05:21:49;3.13;;;1.83;;
42134;SDS011;28312;43.460;11.810;2023-03-01T05:26:04;2.47;;;1.38;;
42134;SDS011;28312;43.460;11.810;2023-03-01T05:30:23;2.63;;;1.75;;
42134;SDS011;28312;43.460;11.810;2023-03-01T05:34:29;2.83;;;1.90;;
42134;SDS011;28312;43.460;11.810;2023-03-01T05:38:36;2.90;;;1.90;;
42134;SDS011;28312;43.460;11.810;2023-03-01T05:42:49;2.58;;;1.77;;
42134;SDS011;28312;43.460;11.810;2023-03-01T05:46:56;1.83;;;1.13;;
42134;SDS011;28312;43.460;11.810;2023-03-01T05:50:59;2.45;;;1.60;;
42134;SDS011;28312;43.460;11.810;2023-03-01T05:55:04;1.98;;;1.35;;
42134;SDS011;28312;43.460;11.810;2023-03-01T05:59:08;2.38;;;1.63;;
42134;SDS011;28312;43.460;11.810;2023-03-01T06:03:12;2.60;;;1.90;;
42134;SDS011;28312;43.460;11.810;2023-03-01T06:07:17;3.80;;;2.28;;
42134;SDS011;28312;43.460;11.810;2023-03-01T06:11:21;3.20;;;1.83;;
42134;SDS011;28312;43.460;11.810;2023-03-01T06:15:25;2.58;;;1.83;;
42134;SDS011;28312;43.460;11.810;2023-03-01T06:19:28;3.50;;;2.65;;
42134;SDS011;28312;43.460;11.810;2023-03-01T06:23:33;3.47;;;2.45;;
42134;SDS011;28312;43.460;11.810;2023-03-01T06:27:37;2.80;;;2.33;;
42134;SDS011;28312;43.460;11.810;2023-03-01T06:31:41;4.43;;;2.40;;
42134;SDS011;28312;43.460;11.810;2023-03-01T06:35:44;4.10;;;3.15;;
42134;SDS011;28312;43.460;11.810;2023-03-01T06:39:48;2.90;;;2.00;;
42134;SDS011;28312;43.460;11.810;2023-03-01T06:43:52;3.38;;;2.10;;
42134;SDS011;28312;43.460;11.810;2023-03-01T06:48:03;3.78;;;2.50;;
42134;SDS011;28312;43.460;11.810;2023-03-01T06:52:07;3.60;;;2.22;;
42134;SDS011;28312;43.460;11.810;2023-03-01T06:56:11;3.08;;;2.15;;
42134;SDS011;28312;43.460;11.810;2023-03-01T07:00:15;5.07;;;3.63;;
42134;SDS011;28312;43.460;11.810;2023-03-01T07:04:19;6.88;;;4.40;;
42134;SDS011;28312;43.460;11.810;2023-03-01T07:08:23;5.30;;;3.60;;
42134;SDS011;28312;43.460;11.810;2023-03-01T07:12:26;5.43;;;2.65;;
42134;SDS011;28312;43.460;11.810;2023-03-01T07:16:29;8.43;;;5.10;;
42134;SDS011;28312;43.460;11.810;2023-03-01T07:20:34;3.20;;;2.40;;
42134;SDS011;28312;43.460;11.810;2023-03-01T07:24:38;5.03;;;2.83;;
42134;SDS011;28312;43.460;11.810;2023-03-01T07:28:41;4.20;;;2.33;;
42134;SDS011;28312;43.460;11.810;2023-03-01T07:32:45;3.25;;;2.30;;
42134;SDS011;28312;43.460;11.810;2023-03-01T07:36:49;3.55;;;1.60;;
42134;SDS011;28312;43.460;11.810;2023-03-01T07:40:52;3.25;;;1.85;;
42134;SDS011;28312;43.460;11.810;2023-03-01T07:44:56;2.97;;;1.73;;
42134;SDS011;28312;43.460;11.810;2023-03-01T07:49:00;2.67;;;1.70;;
42134;SDS011;28312;43.460;11.810;2023-03-01T07:53:03;2.03;;;1.30;;
42134;SDS011;28312;43.460;11.810;2023-03-01T07:57:07;1.92;;;1.30;;
42134;SDS011;28312;43.460;11.810;2023-03-01T08:01:12;2.00;;;1.33;;
42134;SDS011;28312;43.460;11.810;2023-03-01T08:05:17;1.80;;;1.20;;
42134;SDS011;28312;43.460;11.810;2023-03-01T08:09:21;2.58;;;1.52;;
42134;SDS011;28312;43.460;11.810;2023-03-01T08:13:25;2.95;;;1.10;;
42134;SDS011;28312;43.460;11.810;2023-03-01T08:17:29;3.10;;;2.03;;
42134;SDS011;28312;43.460;11.810;2023-03-01T08:21:33;3.83;;;2.08;;
42134;SDS011;28312;43.460;11.810;2023-03-01T08:25:37;2.33;;;1.60;;
42134;SDS011;28312;43.460;11.810;2023-03-01T08:29:41;2.30;;;1.10;;
42134;SDS011;28312;43.460;11.810;2023-03-01T08:33:45;1.98;;;1.30;;
42134;SDS011;28312;43.460;11.810;2023-03-01T08:37:53;2.20;;;1.33;;
42134;SDS011;28312;43.460;11.810;2023-03-01T08:41:57;11.82;;;6.13;;
42134;SDS011;28312;43.460;11.810;2023-03-01T08:46:00;9.48;;;5.45;;
42134;SDS011;28312;43.460;11.810;2023-03-01T08:50:04;3.28;;;1.90;;
42134;SDS011;28312;43.460;11.810;2023-03-01T08:54:10;2.15;;;1.25;;
42134;SDS011;28312;43.460;11.810;2023-03-01T08:58:15;2.88;;;2.03;;
42134;SDS011;28312;43.460;11.810;2023-03-01T09:02:19;2.85;;;1.58;;
42134;SDS011;28312;43.460;11.810;2023-03-01T09:06:23;3.65;;;1.38;;
42134;SDS011;28312;43.460;11.810;2023-03-01T09:10:26;2.58;;;1.90;;
42134;SDS011;28312;43.460;11.810;2023-03-01T09:14:30;3.78;;;2.20;;
42134;SDS011;28312;43.460;11.810;2023-03-01T09:18:34;3.75;;;2.67;;
42134;SDS011;28312;43.460;11.810;2023-03-01T09:22:39;3.17;;;2.00;;
42134;SDS011;28312;43.460;11.810;2023-03-01T09:26:42;2.63;;;1.30;;
42134;SDS011;28312;43.460;11.810;2023-03-01T09:30:51;2.78;;;1.65;;
42134;SDS011;28312;43.460;11.810;2023-03-01T09:34:54;2.50;;;1.88;;
42134;SDS011;28312;43.460;11.810;2023-03-01T09:39:07;2.25;;;1.33;;
42134;SDS011;28312;43.460;11.810;2023-03-01T09:47:27;1.80;;;1.27;;
42134;SDS011;28312;43.460;11.810;2023-03-01T09:51:38;4.47;;;2.00;;
42134;SDS011;28312;43.460;11.810;2023-03-01T09:55:54;2.42;;;1.83;;
42134;SDS011;28312;43.460;11.810;2023-03-01T10:08:38;4.10;;;3.25;;
42134;SDS011;28312;43.460;11.810;2023-03-01T10:12:56;1.80;;;1.13;;
42134;SDS011;28312;43.460;11.810;2023-03-01T10:17:46;2.17;;;1.42;;
42134;SDS011;28312;43.460;11.810;2023-03-01T10:21:35;1.35;;;0.80;;
42134;SDS011;28312;43.460;11.810;2023-03-01T10:26:07;1.52;;;1.00;;
42134;SDS011;28312;43.460;11.810;2023-03-01T10:30:40;2.45;;;1.58;;
42134;SDS011;28312;43.460;11.810;2023-03-01T10:34:47;2.00;;;1.42;;
42134;SDS011;28312;43.460;11.810;2023-03-01T10:38:53;2.20;;;1.38;;
42134;SDS011;28312;43.460;11.810;2023-03-01T10:43:00;1.67;;;1.10;;
42134;SDS011;28312;43.460;11.810;2023-03-01T10:47:17;1.92;;;1.30;;
42134;SDS011;28312;43.460;11.810;2023-03-01T10:51:26;1.20;;;0.90;;
42134;SDS011;28312;43.460;11.810;2023-03-01T10:55:39;1.67;;;1.13;;
42134;SDS011;28312;43.460;11.810;2023-03-01T10:59:43;2.25;;;1.50;;
42134;SDS011;28312;43.460;11.810;2023-03-01T11:08:10;1.95;;;1.30;;
42134;SDS011;28312;43.460;11.810;2023-03-01T11:12:14;1.88;;;1.30;;
42134;SDS011;28312;43.460;11.810;2023-03-01T11:16:24;1.58;;;1.00;;
42134;SDS011;28312;43.460;11.810;2023-03-01T11:20:32;2.17;;;1.00;;
42134;SDS011;28312;43.460;11.810;2023-03-01T11:24:40;1.50;;;0.95;;
42134;SDS011;28312;43.460;11.810;2023-03-01T11:28:49;1.30;;;0.73;;
42134;SDS011;28312;43.460;11.810;2023-03-01T11:33:05;0.45;;;0.45;;
42134;SDS011;28312;43.460;11.810;2023-03-01T11:42:12;2.70;;;1.30;;
42134;SDS011;28312;43.460;11.810;2023-03-01T11:50:47;1.73;;;1.15;;
42134;SDS011;28312;43.460;11.810;2023-03-01T11:54:56;1.67;;;1.35;;
42134;SDS011;28312;43.460;11.810;2023-03-01T11:59:09;2.47;;;2.17;;
42134;SDS011;28312;43.460;11.810;2023-03-01T12:16:15;2.25;;;1.50;;
42134;SDS011;28312;43.460;11.810;2023-03-01T12:21:01;2.25;;;1.52;;
42134;SDS011;28312;43.460;11.810;2023-03-01T12:47:42;2.30;;;1.40;;
42134;SDS011;28312;43.460;11.810;2023-03-01T12:52:03;2.55;;;1.30;;
42134;SDS011;28312;43.460;11.810;2023-03-01T12:56:25;1.70;;;1.10;;
42134;SDS011;28312;43.460;11.810;2023-03-01T13:08:56;2.70;;;1.70;;
42134;SDS011;28312;43.460;11.810;2023-03-01T13:13:13;3.40;;;2.50;;
42134;SDS011;28312;43.460;11.810;2023-03-01T13:17:29;2.50;;;1.38;;
42134;SDS011;28312;43.460;11.810;2023-03-01T13:21:35;2.45;;;1.60;;
42134;SDS011;28312;43.460;11.810;2023-03-01T13:30:01;1.77;;;1.30;;
42134;SDS011;28312;43.460;11.810;2023-03-01T13:34:19;1.90;;;1.15;;
42134;SDS011;28312;43.460;11.810;2023-03-01T13:38:55;2.22;;;1.20;;
42134;SDS011;28312;43.460;11.810;2023-03-01T13:43:28;1.38;;;0.98;;
42134;SDS011;28312;43.460;11.810;2023-03-01T13:47:34;0.80;;;0.60;;
42134;SDS011;28312;43.460;11.810;2023-03-01T13:51:39;1.48;;;0.88;;
42134;SDS011;28312;43.460;11.810;2023-03-01T13:55:50;1.38;;;0.70;;
42134;SDS011;28312;43.460;11.810;2023-03-01T14:00:00;0.90;;;0.70;;
42134;SDS011;28312;43.460;11.810;2023-03-01T14:04:25;3.25;;;0.90;;
42134;SDS011;28312;43.460;11.810;2023-03-01T14:08:35;0.95;;;0.55;;
42134;SDS011;28312;43.460;11.810;2023-03-01T14:12:52;0.73;;;0.52;;
42134;SDS011;28312;43.460;11.810;2023-03-01T14:21:21;1.05;;;0.70;;
42134;SDS011;28312;43.460;11.810;2023-03-01T14:25:32;1.10;;;0.65;;
42134;SDS011;28312;43.460;11.810;2023-03-01T14:29:38;1.27;;;0.70;;
42134;SDS011;28312;43.460;11.810;2023-03-01T14:33:43;0.63;;;0.60;;
42134;SDS011;28312;43.460;11.810;2023-03-01T14:37:58;1.08;;;0.80;;
42134;SDS011;28312;43.460;11.810;2023-03-01T14:42:04;1.83;;;0.80;;
42134;SDS011;28312;43.460;11.810;2023-03-01T14:46:21;1.33;;;0.60;;
42134;SDS011;28312;43.460;11.810;2023-03-01T14:50:34;1.20;;;0.70;;
42134;SDS011;28312;43.460;11.810;2023-03-01T14:54:44;1.27;;;0.82;;
42134;SDS011;28312;43.460;11.810;2023-03-01T14:58:52;0.82;;;0.70;;
42134;SDS011;28312;43.460;11.810;2023-03-01T15:03:01;1.27;;;0.73;;
42134;SDS011;28312;43.460;11.810;2023-03-01T15:07:18;1.10;;;0.80;;
42134;SDS011;28312;43.460;11.810;2023-03-01T15:11:28;1.17;;;0.63;;
42134;SDS011;28312;43.460;11.810;2023-03-01T15:15:35;0.77;;;0.60;;
42134;SDS011;28312;43.460;11.810;2023-03-01T15:19:41;0.68;;;0.60;;
42134;SDS011;28312;43.460;11.810;2023-03-01T15:23:55;0.88;;;0.60;;
42134;SDS011;28312;43.460;11.810;2023-03-01T15:28:25;2.33;;;1.05;;
42134;SDS011;28312;43.460;11.810;2023-03-01T15:32:34;0.52;;;0.50;;
42134;SDS011;28312;43.460;11.810;2023-03-01T15:36:46;0.63;;;0.55;;
42134;SDS011;28312;43.460;11.810;2023-03-01T15:40:53;0.65;;;0.50;;
42134;SDS011;28312;43.460;11.810;2023-03-01T15:45:09;1.45;;;0.80;;
42134;SDS011;28312;43.460;11.810;2023-03-01T15:53:58;0.45;;;0.45;;
42134;SDS011;28312;43.460;11.810;2023-03-01T15:58:05;0.68;;;0.40;;
42134;SDS011;28312;43.460;11.810;2023-03-01T16:02:15;0.95;;;0.70;;
42134;SDS011;28312;43.460;11.810;2023-03-01T16:06:22;0.43;;;0.40;;
42134;SDS011;28312;43.460;11.810;2023-03-01T16:10:26;0.55;;;0.50;;
42134;SDS011;28312;43.460;11.810;2023-03-01T16:14:30;0.65;;;0.50;;
42134;SDS011;28312;43.460;11.810;2023-03-01T16:18:34;1.70;;;0.82;;
42134;SDS011;28312;43.460;11.810;2023-03-01T16:22:37;0.98;;;0.60;;
42134;SDS011;28312;43.460;11.810;2023-03-01T16:26:41;0.98;;;0.50;;
42134;SDS011;28312;43.460;11.810;2023-03-01T16:30:47;1.00;;;0.60;;
42134;SDS011;28312;43.460;11.810;2023-03-01T16:34:51;1.65;;;1.20;;
42134;SDS011;28312;43.460;11.810;2023-03-01T16:38:56;1.58;;;0.90;;
42134;SDS011;28312;43.460;11.810;2023-03-01T16:43:01;1.45;;;0.88;;
42134;SDS011;28312;43.460;11.810;2023-03-01T16:47:05;0.50;;;0.50;;
42134;SDS011;28312;43.460;11.810;2023-03-01T16:51:09;1.58;;;0.93;;
42134;SDS011;28312;43.460;11.810;2023-03-01T16:55:14;1.58;;;0.82;;
42134;SDS011;28312;43.460;11.810;2023-03-01T16:59:17;1.02;;;0.73;;
42134;SDS011;28312;43.460;11.810;2023-03-01T17:03:22;1.63;;;0.85;;
42134;SDS011;28312;43.460;11.810;2023-03-01T17:07:29;2.05;;;1.23;;
42134;SDS011;28312;43.460;11.810;2023-03-01T17:11:37;1.35;;;0.80;;
42134;SDS011;28312;43.460;11.810;2023-03-01T17:15:40;2.08;;;0.95;;
42134;SDS011;28312;43.460;11.810;2023-03-01T17:19:44;1.48;;;1.00;;
42134;SDS011;28312;43.460;11.810;2023-03-01T17:23:48;0.68;;;0.60;;
42134;SDS011;28312;43.460;11.810;2023-03-01T17:27:52;1.90;;;0.93;;
42134;SDS011;28312;43.460;11.810;2023-03-01T17:31:56;1.58;;;1.20;;
42134;SDS011;28312;43.460;11.810;2023-03-01T17:35:59;4.93;;;4.47;;
42134;SDS011;28312;43.460;11.810;2023-03-01T17:40:04;22.40;;;17.00;;
42134;SDS011;28312;43.460;11.810;2023-03-01T17:44:08;3.55;;;2.70;;
42134;SDS011;28312;43.460;11.810;2023-03-01T17:48:12;2.22;;;1.85;;
42134;SDS011;28312;43.460;11.810;2023-03-01T17:52:16;2.47;;;1.55;;
42134;SDS011;28312;43.460;11.810;2023-03-01T17:56:20;3.20;;;1.60;;
42134;SDS011;28312;43.460;11.810;2023-03-01T18:00:24;3.97;;;2.47;;
42134;SDS011;28312;43.460;11.810;2023-03-01T18:04:29;4.20;;;3.30;;
42134;SDS011;28312;43.460;11.810;2023-03-01T18:08:35;4.93;;;3.67;;
42134;SDS011;28312;43.460;11.810;2023-03-01T18:12:40;4.20;;;2.60;;
42134;SDS011;28312;43.460;11.810;2023-03-01T18:16:45;4.30;;;3.50;;
42134;SDS011;28312;43.460;11.810;2023-03-01T18:20:59;3.55;;;2.58;;
42134;SDS011;28312;43.460;11.810;2023-03-01T18:25:06;4.53;;;3.95;;
42134;SDS011;28312;43.460;11.810;2023-03-01T18:29:11;5.40;;;4.05;;
42134;SDS011;28312;43.460;11.810;2023-03-01T18:33:20;5.43;;;3.20;;
42134;SDS011;28312;43.460;11.810;2023-03-01T18:37:25;4.75;;;3.30;;
42134;SDS011;28312;43.460;11.810;2023-03-01T18:41:31;5.80;;;4.10;;
42134;SDS011;28312;43.460;11.810;2023-03-01T18:45:36;5.97;;;3.55;;
42134;SDS011;28312;43.460;11.810;2023-03-01T18:49:41;3.75;;;2.65;;
42134;SDS011;28312;43.460;11.810;2023-03-01T18:53:48;4.28;;;3.30;;
42134;SDS011;28312;43.460;11.810;2023-03-01T18:57:53;4.60;;;3.88;;
42134;SDS011;28312;43.460;11.810;2023-03-01T19:01:57;6.15;;;4.35;;
42134;SDS011;28312;43.460;11.810;2023-03-01T19:06:01;4.35;;;3.30;;
42134;SDS011;28312;43.460;11.810;2023-03-01T19:10:07;6.80;;;3.77;;
42134;SDS011;28312;43.460;11.810;2023-03-01T19:14:12;3.80;;;3.20;;
42134;SDS011;28312;43.460;11.810;2023-03-01T19:18:16;5.88;;;4.20;;
42134;SDS011;28312;43.460;11.810;2023-03-01T19:22:20;5.90;;;4.20;;
42134;SDS011;28312;43.460;11.810;2023-03-01T19:26:26;6.90;;;5.15;;
42134;SDS011;28312;43.460;11.810;2023-03-01T19:30:37;4.55;;;4.05;;
42134;SDS011;28312;43.460;11.810;2023-03-01T19:34:40;4.50;;;3.63;;
42134;SDS011;28312;43.460;11.810;2023-03-01T19:38:46;6.65;;;5.20;;
42134;SDS011;28312;43.460;11.810;2023-03-01T19:42:51;5.60;;;4.97;;
42134;SDS011;28312;43.460;11.810;2023-03-01T19:46:57;5.20;;;4.18;;
42134;SDS011;28312;43.460;11.810;2023-03-01T19:51:01;4.30;;;3.33;;
42134;SDS011;28312;43.460;11.810;2023-03-01T19:55:05;4.63;;;3.55;;
42134;SDS011;28312;43.460;11.810;2023-03-01T19:59:11;4.82;;;4.43;;
42134;SDS011;28312;43.460;11.810;2023-03-01T20:03:15;5.38;;;4.25;;
42134;SDS011;28312;43.460;11.810;2023-03-01T20:07:19;3.78;;;2.80;;
42134;SDS011;28312;43.460;11.810;2023-03-01T20:11:23;5.18;;;3.92;;
42134;SDS011;28312;43.460;11.810;2023-03-01T20:15:27;3.60;;;2.70;;
42134;SDS011;28312;43.460;11.810;2023-03-01T20:19:33;4.95;;;3.85;;
42134;SDS011;28312;43.460;11.810;2023-03-01T20:23:37;8.45;;;6.30;;
42134;SDS011;28312;43.460;11.810;2023-03-01T20:27:41;6.47;;;4.53;;
42134;SDS011;28312;43.460;11.810;2023-03-01T20:31:49;6.05;;;4.90;;
42134;SDS011;28312;43.460;11.810;2023-03-01T20:35:54;6.32;;;4.88;;
42134;SDS011;28312;43.460;11.810;2023-03-01T20:39:58;8.63;;;6.47;;
42134;SDS011;28312;43.460;11.810;2023-03-01T20:44:02;5.97;;;5.35;;
42134;SDS011;28312;43.460;11.810;2023-03-01T20:48:08;3.72;;;3.10;;
42134;SDS011;28312;43.460;11.810;2023-03-01T20:52:13;4.20;;;3.30;;
42134;SDS011;28312;43.460;11.810;2023-03-01T20:56:17;3.95;;;2.35;;
42134;SDS011;28312;43.460;11.810;2023-03-01T21:00:36;6.82;;;5.63;;
42134;SDS011;28312;43.460;11.810;2023-03-01T21:04:42;6.80;;;5.57;;
42134;SDS011;28312;43.460;11.810;2023-03-01T21:08:46;5.00;;;4.43;;
42134;SDS011;28312;43.460;11.810;2023-03-01T21:12:49;4.85;;;4.05;;
42134;SDS011;28312;43.460;11.810;2023-03-01T21:16:53;4.70;;;4.25;;
42134;SDS011;28312;43.460;11.810;2023-03-01T21:21:02;6.65;;;5.95;;
42134;SDS011;28312;43.460;11.810;2023-03-01T21:25:11;4.97;;;4.47;;
42134;SDS011;28312;43.460;11.810;2023-03-01T21:33:23;2.72;;;1.88;;
42134;SDS011;28312;43.460;11.810;2023-03-01T21:37:28;7.50;;;4.88;;
42134;SDS011;28312;43.460;11.810;2023-03-01T21:41:34;5.15;;;3.95;;
42134;SDS011;28312;43.460;11.810;2023-03-01T21:45:40;4.88;;;3.50;;
42134;SDS011;28312;43.460;11.810;2023-03-01T21:49:47;4.35;;;3.45;;
42134;SDS011;28312;43.460;11.810;2023-03-01T21:53:56;5.30;;;3.88;;
42134;SDS011;28312;43.460;11.810;2023-03-01T21:58:01;5.28;;;4.32;;
42134;SDS011;28312;43.460;11.810;2023-03-01T22:02:05;2.63;;;2.20;;
42134;SDS011;28312;43.460;11.810;2023-03-01T22:06:12;2.33;;;1.73;;
42134;SDS011;28312;43.460;11.810;2023-03-01T22:10:21;4.55;;;3.25;;
42134;SDS011;28312;43.460;11.810;2023-03-01T22:14:29;6.80;;;5.03;;
42134;SDS011;28312;43.460;11.810;2023-03-01T22:18:34;3.83;;;3.05;;
42134;SDS011;28312;43.460;11.810;2023-03-01T22:22:37;2.25;;;1.75;;
42134;SDS011;28312;43.460;11.810;2023-03-01T22:26:42;2.10;;;1.48;;
42134;SDS011;28312;43.460;11.810;2023-03-01T22:30:47;1.40;;;1.13;;
42134;SDS011;28312;43.460;11.810;2023-03-01T22:34:50;5.28;;;4.50;;
42134;SDS011;28312;43.460;11.810;2023-03-01T22:38:54;3.08;;;2.00;;
42134;SDS011;28312;43.460;11.810;2023-03-01T22:43:02;4.10;;;3.25;;
42134;SDS011;28312;43.460;11.810;2023-03-01T22:47:06;5.38;;;4.40;;
42134;SDS011;28312;43.460;11.810;2023-03-01T22:51:20;5.35;;;4.45;;
42134;SDS011;28312;43.460;11.810;2023-03-01T22:55:26;7.28;;;5.68;;
42134;SDS011;28312;43.460;11.810;2023-03-01T22:59:31;6.47;;;5.05;;
42134;SDS011;28312;43.460;11.810;2023-03-01T23:03:35;8.32;;;4.18;;
42134;SDS011;28312;43.460;11.810;2023-03-01T23:07:39;5.22;;;4.30;;
42134;SDS011;28312;43.460;11.810;2023-03-01T23:11:42;6.88;;;5.25;;
42134;SDS011;28312;43.460;11.810;2023-03-01T23:15:51;5.78;;;5.00;;
42134;SDS011;28312;43.460;11.810;2023-03-01T23:19:55;4.70;;;3.75;;
42134;SDS011;28312;43.460;11.810;2023-03-01T23:24:00;5.07;;;3.60;;
42134;SDS011;28312;43.460;11.810;2023-03-01T23:28:04;5.30;;;4.32;;
42134;SDS011;28312;43.460;11.810;2023-03-01T23:32:08;3.33;;;2.38;;
42134;SDS011;28312;43.460;11.810;2023-03-01T23:36:14;3.95;;;3.13;;
42134;SDS011;28312;43.460;11.810;2023-03-01T23:40:22;4.93;;;3.75;;
42134;SDS011;28312;43.460;11.810;2023-03-01T23:44:26;4.85;;;3.88;;
42134;SDS011;28312;43.460;11.810;2023-03-01T23:48:29;5.78;;;3.80;;
42134;SDS011;28312;43.460;11.810;2023-03-01T23:52:36;4.90;;;4.00;;
42134;SDS011;28312;43.460;11.810;2023-03-01T23:56:42;6.20;;;4.47;;
